sensor_id;sensor_type;location;lat;lon;timestamp;temperature;humidity
18299;DHT22;9275;48.690;9.686;2024-02-04T00:03:21;1.90;76.80
18299;DHT22;9275;48.690;9.686;2024-02-04T00:08:26;1.80;76.00
18299;DHT22;9275;48.690;9.686;2024-02-04T00:13:30;1.80;76.50
18299;DHT22;9275;48.690;9.686;2024-02-04T00:18:36;1.80;76.30
18299;DHT22;9275;48.690;9.686;2024-02-04T00:23:41;1.70;76.70
18299;DHT22;9275;48.690;9.686;2024-02-04T00:28:45;1.50;78.70
18299;DHT22;9275;48.690;9.686;2024-02-04T00:33:52;1.50;78.60
18299;DHT22;9275;48.690;9.686;2024-02-04T00:38:56;1.40;80.00
18299;DHT22;9275;48.690;9.686;2024-02-04T00:44:01;1.30;81.50
18299;DHT22;9275;48.690;9.686;2024-02-04T00:49:07;1.30;81.40
18299;DHT22;9275;48.690;9.686;2024-02-04T00:54:12;1.20;81.40
18299;DHT22;9275;48.690;9.686;2024-02-04T00:59:16;1.40;80.80
18299;DHT22;9275;48.690;9.686;2024-02-04T01:04:22;1.40;82.20
18299;DHT22;9275;48.690;9.686;2024-02-04T01:09:27;1.30;82.50
18299;DHT22;9275;48.690;9.686;2024-02-04T01:14:32;1.40;81.60
18299;DHT22;9275;48.690;9.686;2024-02-04T01:19:38;1.40;81.10
18299;DHT22;9275;48.690;9.686;2024-02-04T01:24:42;1.50;80.60
18299;DHT22;9275;48.690;9.686;2024-02-04T01:29:47;1.40;80.10
18299;DHT22;9275;48.690;9.686;2024-02-04T01:34:52;1.40;80.30
18299;DHT22;9275;48.690;9.686;2024-02-04T01:39:57;1.40;79.40
18299;DHT22;9275;48.690;9.686;2024-02-04T01:45:02;1.40;79.80
18299;DHT22;9275;48.690;9.686;2024-02-04T01:50:09;1.40;78.80
18299;DHT22;9275;48.690;9.686;2024-02-04T01:55:15;1.30;78.50
18299;DHT22;9275;48.690;9.686;2024-02-04T02:00:19;1.40;78.60
18299;DHT22;9275;48.690;9.686;2024-02-04T02:05:25;1.30;78.70
18299;DHT22;9275;48.690;9.686;2024-02-04T02:10:30;1.10;78.30
18299;DHT22;9275;48.690;9.686;2024-02-04T02:15:38;1.20;78.10
18299;DHT22;9275;48.690;9.686;2024-02-04T02:20:55;1.10;77.60
18299;DHT22;9275;48.690;9.686;2024-02-04T02:26:07;1.10;77.40
18299;DHT22;9275;48.690;9.686;2024-02-04T02:31:12;1.10;77.50
18299;DHT22;9275;48.690;9.686;2024-02-04T02:36:21;0.90;78.00
18299;DHT22;9275;48.690;9.686;2024-02-04T02:41:28;1.00;77.80
18299;DHT22;9275;48.690;9.686;2024-02-04T02:46:34;0.90;77.50
18299;DHT22;9275;48.690;9.686;2024-02-04T02:51:40;0.90;78.50
18299;DHT22;9275;48.690;9.686;2024-02-04T02:56:46;1.00;78.50
18299;DHT22;9275;48.690;9.686;2024-02-04T03:01:50;0.90;79.50
18299;DHT22;9275;48.690;9.686;2024-02-04T03:06:55;0.80;79.00
18299;DHT22;9275;48.690;9.686;2024-02-04T03:12:01;0.70;79.40
18299;DHT22;9275;48.690;9.686;2024-02-04T03:17:06;0.80;79.60
18299;DHT22;9275;48.690;9.686;2024-02-04T03:22:10;0.80;79.90
18299;DHT22;9275;48.690;9.686;2024-02-04T03:27:17;0.70;80.30
18299;DHT22;9275;48.690;9.686;2024-02-04T03:32:23;0.70;80.70
18299;DHT22;9275;48.690;9.686;2024-02-04T03:37:27;0.60;81.30
18299;DHT22;9275;48.690;9.686;2024-02-04T03:42:33;0.60;82.00
18299;DHT22;9275;48.690;9.686;2024-02-04T03:47:38;0.50;82.30
18299;DHT22;9275;48.690;9.686;2024-02-04T03:52:42;0.50;82.40
18299;DHT22;9275;48.690;9.686;2024-02-04T03:57:48;0.60;82.10
18299;DHT22;9275;48.690;9.686;2024-02-04T04:02:53;0.50;82.60
18299;DHT22;9275;48.690;9.686;2024-02-04T04:07:57;0.60;83.10
18299;DHT22;9275;48.690;9.686;2024-02-04T04:13:03;0.60;82.90
18299;DHT22;9275;48.690;9.686;2024-02-04T04:18:08;0.60;84.00
18299;DHT22;9275;48.690;9.686;2024-02-04T04:23:14;0.60;84.40
18299;DHT22;9275;48.690;9.686;2024-02-04T04:28:19;0.70;84.50
18299;DHT22;9275;48.690;9.686;2024-02-04T04:33:24;0.60;84.90
18299;DHT22;9275;48.690;9.686;2024-02-04T04:38:29;0.60;85.40
18299;DHT22;9275;48.690;9.686;2024-02-04T04:43:37;0.70;85.30
18299;DHT22;9275;48.690;9.686;2024-02-04T04:48:42;0.70;85.30
18299;DHT22;9275;48.690;9.686;2024-02-04T04:53:46;0.80;85.90
18299;DHT22;9275;48.690;9.686;2024-02-04T04:58:52;0.80;85.80
18299;DHT22;9275;48.690;9.686;2024-02-04T05:03:57;0.80;86.00
18299;DHT22;9275;48.690;9.686;2024-02-04T05:09:01;0.90;86.60
18299;DHT22;9275;48.690;9.686;2024-02-04T05:14:07;0.80;87.30
18299;DHT22;9275;48.690;9.686;2024-02-04T05:19:12;0.80;87.70
18299;DHT22;9275;48.690;9.686;2024-02-04T05:24:18;0.70;88.60
18299;DHT22;9275;48.690;9.686;2024-02-04T05:29:23;0.80;89.70
18299;DHT22;9275;48.690;9.686;2024-02-04T05:34:28;0.80;90.20
18299;DHT22;9275;48.690;9.686;2024-02-04T05:39:35;0.80;90.70
18299;DHT22;9275;48.690;9.686;2024-02-04T05:44:40;0.80;91.10
18299;DHT22;9275;48.690;9.686;2024-02-04T05:49:45;0.80;91.20
18299;DHT22;9275;48.690;9.686;2024-02-04T05:54:49;0.80;91.80
18299;DHT22;9275;48.690;9.686;2024-02-04T05:59:55;0.80;92.00
18299;DHT22;9275;48.690;9.686;2024-02-04T06:05:02;0.80;92.60
18299;DHT22;9275;48.690;9.686;2024-02-04T06:10:09;0.80;93.00
18299;DHT22;9275;48.690;9.686;2024-02-04T06:15:15;0.80;93.30
18299;DHT22;9275;48.690;9.686;2024-02-04T06:20:20;0.80;93.70
18299;DHT22;9275;48.690;9.686;2024-02-04T06:25:24;0.90;93.80
18299;DHT22;9275;48.690;9.686;2024-02-04T06:30:30;0.80;94.10
18299;DHT22;9275;48.690;9.686;2024-02-04T06:35:35;0.90;94.40
18299;DHT22;9275;48.690;9.686;2024-02-04T06:40:39;0.90;94.80
18299;DHT22;9275;48.690;9.686;2024-02-04T06:45:45;1.00;95.00
18299;DHT22;9275;48.690;9.686;2024-02-04T06:50:49;1.00;95.20
18299;DHT22;9275;48.690;9.686;2024-02-04T06:55:54;1.00;95.20
18299;DHT22;9275;48.690;9.686;2024-02-04T07:01:00;1.10;95.30
18299;DHT22;9275;48.690;9.686;2024-02-04T07:06:05;1.10;95.20
18299;DHT22;9275;48.690;9.686;2024-02-04T07:11:09;1.10;95.10
18299;DHT22;9275;48.690;9.686;2024-02-04T07:16:15;1.00;95.30
18299;DHT22;9275;48.690;9.686;2024-02-04T07:21:20;1.10;95.20
18299;DHT22;9275;48.690;9.686;2024-02-04T07:26:24;1.10;95.20
18299;DHT22;9275;48.690;9.686;2024-02-04T07:31:30;1.00;95.30
18299;DHT22;9275;48.690;9.686;2024-02-04T07:36:35;0.90;95.60
18299;DHT22;9275;48.690;9.686;2024-02-04T07:41:39;0.90;95.70
18299;DHT22;9275;48.690;9.686;2024-02-04T07:46:45;1.10;95.70
18299;DHT22;9275;48.690;9.686;2024-02-04T07:51:49;1.10;95.50
18299;DHT22;9275;48.690;9.686;2024-02-04T07:56:54;1.00;95.80
18299;DHT22;9275;48.690;9.686;2024-02-04T08:02:00;0.90;96.20
18299;DHT22;9275;48.690;9.686;2024-02-04T08:07:04;0.80;96.90
18299;DHT22;9275;48.690;9.686;2024-02-04T08:12:09;0.90;97.20
18299;DHT22;9275;48.690;9.686;2024-02-04T08:17:15;0.90;97.80
18299;DHT22;9275;48.690;9.686;2024-02-04T08:22:20;1.00;98.10
18299;DHT22;9275;48.690;9.686;2024-02-04T08:27:24;1.30;98.20
18299;DHT22;9275;48.690;9.686;2024-02-04T08:32:30;1.60;98.10
18299;DHT22;9275;48.690;9.686;2024-02-04T08:37:35;1.50;98.40
18299;DHT22;9275;48.690;9.686;2024-02-04T08:42:40;1.50;98.90
18299;DHT22;9275;48.690;9.686;2024-02-04T08:47:47;1.50;99.10
18299;DHT22;9275;48.690;9.686;2024-02-04T08:52:51;1.60;99.30
18299;DHT22;9275;48.690;9.686;2024-02-04T08:57:55;1.60;99.40
18299;DHT22;9275;48.690;9.686;2024-02-04T09:03:01;1.80;99.10
18299;DHT22;9275;48.690;9.686;2024-02-04T09:08:06;1.90;99.00
18299;DHT22;9275;48.690;9.686;2024-02-04T09:13:11;1.90;98.80
18299;DHT22;9275;48.690;9.686;2024-02-04T09:18:17;1.80;98.70
18299;DHT22;9275;48.690;9.686;2024-02-04T09:23:22;1.70;99.30
18299;DHT22;9275;48.690;9.686;2024-02-04T09:28:27;1.80;99.60
18299;DHT22;9275;48.690;9.686;2024-02-04T09:33:33;2.00;98.90
18299;DHT22;9275;48.690;9.686;2024-02-04T09:38:38;2.00;98.80
18299;DHT22;9275;48.690;9.686;2024-02-04T09:43:43;2.20;98.60
18299;DHT22;9275;48.690;9.686;2024-02-04T09:48:51;2.40;98.20
18299;DHT22;9275;48.690;9.686;2024-02-04T09:54:02;2.40;98.20
18299;DHT22;9275;48.690;9.686;2024-02-04T09:59:09;2.60;97.80
18299;DHT22;9275;48.690;9.686;2024-02-04T10:04:15;2.80;97.20
18299;DHT22;9275;48.690;9.686;2024-02-04T10:09:20;2.80;97.00
18299;DHT22;9275;48.690;9.686;2024-02-04T10:14:24;2.80;96.70
18299;DHT22;9275;48.690;9.686;2024-02-04T10:19:30;2.50;97.00
18299;DHT22;9275;48.690;9.686;2024-02-04T10:24:36;2.40;97.20
18299;DHT22;9275;48.690;9.686;2024-02-04T10:29:41;2.40;97.30
18299;DHT22;9275;48.690;9.686;2024-02-04T10:34:47;2.50;97.70
18299;DHT22;9275;48.690;9.686;2024-02-04T10:39:52;2.80;97.20
18299;DHT22;9275;48.690;9.686;2024-02-04T10:44:58;3.20;96.50
18299;DHT22;9275;48.690;9.686;2024-02-04T10:50:05;3.50;95.70
18299;DHT22;9275;48.690;9.686;2024-02-04T10:55:11;3.00;95.80
18299;DHT22;9275;48.690;9.686;2024-02-04T11:00:17;2.80;96.10
18299;DHT22;9275;48.690;9.686;2024-02-04T11:05:25;2.90;96.20
18299;DHT22;9275;48.690;9.686;2024-02-04T11:10:31;2.80;96.60
18299;DHT22;9275;48.690;9.686;2024-02-04T11:15:36;2.40;97.20
18299;DHT22;9275;48.690;9.686;2024-02-04T11:21:03;2.40;97.80
18299;DHT22;9275;48.690;9.686;2024-02-04T11:26:13;2.40;98.00
18299;DHT22;9275;48.690;9.686;2024-02-04T11:31:18;2.50;98.40
18299;DHT22;9275;48.690;9.686;2024-02-04T11:36:26;2.70;97.90
18299;DHT22;9275;48.690;9.686;2024-02-04T11:41:30;2.80;97.50
18299;DHT22;9275;48.690;9.686;2024-02-04T11:46:35;2.90;97.40
18299;DHT22;9275;48.690;9.686;2024-02-04T11:51:41;2.90;96.90
18299;DHT22;9275;48.690;9.686;2024-02-04T11:56:49;2.90;96.60
18299;DHT22;9275;48.690;9.686;2024-02-04T12:01:57;2.60;97.20
18299;DHT22;9275;48.690;9.686;2024-02-04T12:07:03;2.50;98.00
18299;DHT22;9275;48.690;9.686;2024-02-04T12:12:09;2.50;98.00
18299;DHT22;9275;48.690;9.686;2024-02-04T12:17:13;2.50;98.10
18299;DHT22;9275;48.690;9.686;2024-02-04T12:22:19;2.50;98.10
18299;DHT22;9275;48.690;9.686;2024-02-04T12:27:23;2.30;98.50
18299;DHT22;9275;48.690;9.686;2024-02-04T12:32:28;2.20;98.90
18299;DHT22;9275;48.690;9.686;2024-02-04T12:37:35;2.30;98.90
18299;DHT22;9275;48.690;9.686;2024-02-04T12:42:39;2.30;98.80
18299;DHT22;9275;48.690;9.686;2024-02-04T12:47:43;2.40;98.70
18299;DHT22;9275;48.690;9.686;2024-02-04T12:53:02;2.20;98.80
18299;DHT22;9275;48.690;9.686;2024-02-04T12:58:09;2.50;98.40
18299;DHT22;9275;48.690;9.686;2024-02-04T13:03:16;2.50;98.20
18299;DHT22;9275;48.690;9.686;2024-02-04T13:08:22;2.50;98.40
18299;DHT22;9275;48.690;9.686;2024-02-04T13:13:30;2.40;98.90
18299;DHT22;9275;48.690;9.686;2024-02-04T13:18:34;2.30;99.10
18299;DHT22;9275;48.690;9.686;2024-02-04T13:23:40;2.30;99.10
18299;DHT22;9275;48.690;9.686;2024-02-04T13:28:46;2.50;99.00
18299;DHT22;9275;48.690;9.686;2024-02-04T13:33:50;2.40;99.00
18299;DHT22;9275;48.690;9.686;2024-02-04T13:38:56;2.40;99.00
18299;DHT22;9275;48.690;9.686;2024-02-04T13:44:01;2.60;98.40
18299;DHT22;9275;48.690;9.686;2024-02-04T13:49:08;2.50;98.20
18299;DHT22;9275;48.690;9.686;2024-02-04T13:54:17;2.40;98.70
18299;DHT22;9275;48.690;9.686;2024-02-04T13:59:21;2.70;98.40
18299;DHT22;9275;48.690;9.686;2024-02-04T14:04:26;2.80;97.70
18299;DHT22;9275;48.690;9.686;2024-02-04T14:09:32;2.70;97.50
18299;DHT22;9275;48.690;9.686;2024-02-04T14:14:36;2.80;97.60
18299;DHT22;9275;48.690;9.686;2024-02-04T14:19:42;2.90;97.80
18299;DHT22;9275;48.690;9.686;2024-02-04T14:24:50;2.90;97.40
18299;DHT22;9275;48.690;9.686;2024-02-04T14:29:55;3.00;97.20
18299;DHT22;9275;48.690;9.686;2024-02-04T14:35:00;3.00;96.80
18299;DHT22;9275;48.690;9.686;2024-02-04T14:40:10;3.10;97.00
18299;DHT22;9275;48.690;9.686;2024-02-04T14:45:15;3.10;97.70
18299;DHT22;9275;48.690;9.686;2024-02-04T14:50:19;3.40;96.60
18299;DHT22;9275;48.690;9.686;2024-02-04T14:55:25;3.60;96.30
18299;DHT22;9275;48.690;9.686;2024-02-04T15:00:29;3.40;94.80
18299;DHT22;9275;48.690;9.686;2024-02-04T15:05:35;3.00;95.70
18299;DHT22;9275;48.690;9.686;2024-02-04T15:10:41;2.60;96.10
18299;DHT22;9275;48.690;9.686;2024-02-04T15:15:46;2.50;96.70
18299;DHT22;9275;48.690;9.686;2024-02-04T15:20:51;2.70;96.30
18299;DHT22;9275;48.690;9.686;2024-02-04T15:25:57;2.70;96.20
18299;DHT22;9275;48.690;9.686;2024-02-04T15:31:02;2.50;96.50
18299;DHT22;9275;48.690;9.686;2024-02-04T15:36:08;2.60;96.40
18299;DHT22;9275;48.690;9.686;2024-02-04T15:41:13;2.50;96.30
18299;DHT22;9275;48.690;9.686;2024-02-04T15:46:18;2.40;96.90
18299;DHT22;9275;48.690;9.686;2024-02-04T15:51:23;2.30;96.70
18299;DHT22;9275;48.690;9.686;2024-02-04T15:56:32;2.10;96.60
18299;DHT22;9275;48.690;9.686;2024-02-04T16:01:38;1.90;97.40
18299;DHT22;9275;48.690;9.686;2024-02-04T16:06:44;1.60;97.40
18299;DHT22;9275;48.690;9.686;2024-02-04T16:11:55;1.40;98.30
18299;DHT22;9275;48.690;9.686;2024-02-04T16:17:03;1.30;98.50
18299;DHT22;9275;48.690;9.686;2024-02-04T16:22:08;1.10;99.00
18299;DHT22;9275;48.690;9.686;2024-02-04T16:27:14;0.90;99.20
18299;DHT22;9275;48.690;9.686;2024-02-04T16:32:19;0.70;99.60
18299;DHT22;9275;48.690;9.686;2024-02-04T16:37:24;0.50;99.90
18299;DHT22;9275;48.690;9.686;2024-02-04T16:42:30;0.30;99.90
18299;DHT22;9275;48.690;9.686;2024-02-04T16:47:38;0.20;99.90
18299;DHT22;9275;48.690;9.686;2024-02-04T16:52:42;0.20;99.90
18299;DHT22;9275;48.690;9.686;2024-02-04T16:57:48;0.20;99.90
18299;DHT22;9275;48.690;9.686;2024-02-04T17:02:53;0.20;99.90
18299;DHT22;9275;48.690;9.686;2024-02-04T17:07:59;0.10;99.90
18299;DHT22;9275;48.690;9.686;2024-02-04T17:13:06;0.00;99.90
18299;DHT22;9275;48.690;9.686;2024-02-04T17:18:13;-0.10;99.90
18299;DHT22;9275;48.690;9.686;2024-02-04T17:23:20;-0.10;99.90
18299;DHT22;9275;48.690;9.686;2024-02-04T17:28:27;-0.10;99.90
18299;DHT22;9275;48.690;9.686;2024-02-04T17:33:32;-0.20;99.90
18299;DHT22;9275;48.690;9.686;2024-02-04T17:38:37;-0.20;99.90
18299;DHT22;9275;48.690;9.686;2024-02-04T17:43:43;-0.20;99.90
18299;DHT22;9275;48.690;9.686;2024-02-04T17:48:48;-0.10;99.90
18299;DHT22;9275;48.690;9.686;2024-02-04T17:53:53;-0.10;99.90
18299;DHT22;9275;48.690;9.686;2024-02-04T17:58:59;0.00;99.90
18299;DHT22;9275;48.690;9.686;2024-02-04T18:04:03;-0.10;99.90
18299;DHT22;9275;48.690;9.686;2024-02-04T18:09:08;-0.30;99.90
18299;DHT22;9275;48.690;9.686;2024-02-04T18:14:15;-0.30;99.90
18299;DHT22;9275;48.690;9.686;2024-02-04T18:19:19;-0.20;99.90
18299;DHT22;9275;48.690;9.686;2024-02-04T18:24:24;-0.20;99.90
18299;DHT22;9275;48.690;9.686;2024-02-04T18:29:30;-0.20;99.90
18299;DHT22;9275;48.690;9.686;2024-02-04T18:34:35;-0.40;99.90
18299;DHT22;9275;48.690;9.686;2024-02-04T18:39:39;-0.40;99.90
18299;DHT22;9275;48.690;9.686;2024-02-04T18:44:45;-0.30;99.90
18299;DHT22;9275;48.690;9.686;2024-02-04T18:49:50;-0.30;99.90
18299;DHT22;9275;48.690;9.686;2024-02-04T18:54:57;-0.20;99.90
18299;DHT22;9275;48.690;9.686;2024-02-04T19:00:04;-0.20;99.90
18299;DHT22;9275;48.690;9.686;2024-02-04T19:05:10;-0.10;99.90
18299;DHT22;9275;48.690;9.686;2024-02-04T19:10:15;0.00;99.90
18299;DHT22;9275;48.690;9.686;2024-02-04T19:15:21;0.10;99.90
18299;DHT22;9275;48.690;9.686;2024-02-04T19:20:26;0.10;99.90
18299;DHT22;9275;48.690;9.686;2024-02-04T19:25:30;0.20;99.90
18299;DHT22;9275;48.690;9.686;2024-02-04T19:30:36;0.30;99.90
18299;DHT22;9275;48.690;9.686;2024-02-04T19:35:42;0.40;99.90
18299;DHT22;9275;48.690;9.686;2024-02-04T19:40:46;0.30;99.70
18299;DHT22;9275;48.690;9.686;2024-02-04T19:45:55;0.30;99.40
18299;DHT22;9275;48.690;9.686;2024-02-04T19:51:01;0.30;98.90
18299;DHT22;9275;48.690;9.686;2024-02-04T19:56:05;0.20;98.60
18299;DHT22;9275;48.690;9.686;2024-02-04T20:01:11;0.30;97.90
18299;DHT22;9275;48.690;9.686;2024-02-04T20:06:16;0.30;97.30
18299;DHT22;9275;48.690;9.686;2024-02-04T20:11:21;0.30;96.80
18299;DHT22;9275;48.690;9.686;2024-02-04T20:16:27;0.40;96.10
18299;DHT22;9275;48.690;9.686;2024-02-04T20:21:31;0.40;95.40
18299;DHT22;9275;48.690;9.686;2024-02-04T20:26:37;0.40;95.40
18299;DHT22;9275;48.690;9.686;2024-02-04T20:31:43;0.40;94.90
18299;DHT22;9275;48.690;9.686;2024-02-04T20:36:50;0.50;94.70
18299;DHT22;9275;48.690;9.686;2024-02-04T20:41:55;0.40;94.50
18299;DHT22;9275;48.690;9.686;2024-02-04T20:47:02;0.40;94.10
18299;DHT22;9275;48.690;9.686;2024-02-04T20:52:07;0.50;93.90
18299;DHT22;9275;48.690;9.686;2024-02-04T20:57:11;0.40;93.80
18299;DHT22;9275;48.690;9.686;2024-02-04T21:02:17;0.40;93.40
18299;DHT22;9275;48.690;9.686;2024-02-04T21:07:22;0.50;92.40
18299;DHT22;9275;48.690;9.686;2024-02-04T21:12:26;0.50;91.70
18299;DHT22;9275;48.690;9.686;2024-02-04T21:17:34;0.40;91.60
18299;DHT22;9275;48.690;9.686;2024-02-04T21:22:39;0.50;90.30
18299;DHT22;9275;48.690;9.686;2024-02-04T21:27:46;0.40;89.40
18299;DHT22;9275;48.690;9.686;2024-02-04T21:32:52;0.30;89.90
18299;DHT22;9275;48.690;9.686;2024-02-04T21:37:57;0.20;87.80
18299;DHT22;9275;48.690;9.686;2024-02-04T21:43:01;0.20;88.70
18299;DHT22;9275;48.690;9.686;2024-02-04T21:48:08;0.00;89.50
18299;DHT22;9275;48.690;9.686;2024-02-04T21:53:13;-0.10;89.50
18299;DHT22;9275;48.690;9.686;2024-02-04T21:58:17;-0.20;89.20
18299;DHT22;9275;48.690;9.686;2024-02-04T22:03:23;-0.30;90.00
18299;DHT22;9275;48.690;9.686;2024-02-04T22:08:27;-0.40;90.00
18299;DHT22;9275;48.690;9.686;2024-02-04T22:13:32;-0.40;89.50
18299;DHT22;9275;48.690;9.686;2024-02-04T22:18:38;-0.40;89.50
18299;DHT22;9275;48.690;9.686;2024-02-04T22:23:43;-0.50;90.00
18299;DHT22;9275;48.690;9.686;2024-02-04T22:28:47;-0.50;89.90
18299;DHT22;9275;48.690;9.686;2024-02-04T22:33:53;-0.60;88.80
18299;DHT22;9275;48.690;9.686;2024-02-04T22:38:59;-0.60;88.70
18299;DHT22;9275;48.690;9.686;2024-02-04T22:44:03;-0.50;88.30
18299;DHT22;9275;48.690;9.686;2024-02-04T22:49:09;-0.40;87.30
18299;DHT22;9275;48.690;9.686;2024-02-04T22:54:14;-0.20;87.10
18299;DHT22;9275;48.690;9.686;2024-02-04T22:59:19;-0.20;87.60
18299;DHT22;9275;48.690;9.686;2024-02-04T23:04:26;-0.20;84.90
18299;DHT22;9275;48.690;9.686;2024-02-04T23:09:31;-0.30;86.70
18299;DHT22;9275;48.690;9.686;2024-02-04T23:14:35;-0.20;84.80
18299;DHT22;9275;48.690;9.686;2024-02-04T23:19:42;-0.20;85.60
18299;DHT22;9275;48.690;9.686;2024-02-04T23:24:46;-0.30;86.50
18299;DHT22;9275;48.690;9.686;2024-02-04T23:29:50;-0.30;85.40
18299;DHT22;9275;48.690;9.686;2024-02-04T23:34:56;-0.30;83.70
18299;DHT22;9275;48.690;9.686;2024-02-04T23:40:01;-0.20;83.70
18299;DHT22;9275;48.690;9.686;2024-02-04T23:45:08;0.10;85.00
18299;DHT22;9275;48.690;9.686;2024-02-04T23:50:15;0.10;86.60
18299;DHT22;9275;48.690;9.686;2024-02-04T23:55:20;0.10;88.30
